sensor_id;sensor_type;location;lat;lon;timestamp;P1;durP1;ratioP1;P2;durP2;ratioP2
76574;SDS011;65439;50.948;6.988;2023-10-13T00:00:25;9.82;;;7.50;;
76574;SDS011;65439;50.948;6.988;2023-10-13T00:02:51;14.80;;;8.32;;
76574;SDS011;65439;50.948;6.988;2023-10-13T00:05:17;11.43;;;8.68;;
76574;SDS011;65439;50.948;6.988;2023-10-13T00:07:42;13.83;;;8.90;;
76574;SDS011;65439;50.948;6.988;2023-10-13T00:10:08;11.88;;;8.18;;
76574;SDS011;65439;50.948;6.988;2023-10-13T00:12:43;12.80;;;7.75;;
76574;SDS011;65439;50.948;6.988;2023-10-13T00:15:14;13.10;;;8.27;;
76574;SDS011;65439;50.948;6.988;2023-10-13T00:17:40;15.75;;;8.98;;
76574;SDS011;65439;50.948;6.988;2023-10-13T00:20:07;15.23;;;8.98;;
76574;SDS011;65439;50.948;6.988;2023-10-13T00:22:37;10.25;;;8.65;;
76574;SDS011;65439;50.948;6.988;2023-10-13T00:25:05;12.15;;;7.93;;
76574;SDS011;65439;50.948;6.988;2023-10-13T00:27:31;16.35;;;8.70;;
76574;SDS011;65439;50.948;6.988;2023-10-13T00:32:50;15.88;;;8.43;;
76574;SDS011;65439;50.948;6.988;2023-10-13T00:35:25;13.25;;;8.77;;
76574;SDS011;65439;50.948;6.988;2023-10-13T00:37:51;16.02;;;9.05;;
76574;SDS011;65439;50.948;6.988;2023-10-13T00:40:18;18.75;;;8.63;;
76574;SDS011;65439;50.948;6.988;2023-10-13T00:43:03;11.85;;;7.20;;
76574;SDS011;65439;50.948;6.988;2023-10-13T00:45:53;11.27;;;8.23;;
76574;SDS011;65439;50.948;6.988;2023-10-13T00:50:53;12.60;;;8.68;;
76574;SDS011;65439;50.948;6.988;2023-10-13T00:53:21;13.20;;;8.38;;
76574;SDS011;65439;50.948;6.988;2023-10-13T00:55:46;12.53;;;9.47;;
76574;SDS011;65439;50.948;6.988;2023-10-13T00:58:11;19.83;;;14.47;;
76574;SDS011;65439;50.948;6.988;2023-10-13T01:00:37;15.85;;;8.93;;
76574;SDS011;65439;50.948;6.988;2023-10-13T01:03:12;13.43;;;8.93;;
76574;SDS011;65439;50.948;6.988;2023-10-13T01:05:37;14.45;;;9.02;;
76574;SDS011;65439;50.948;6.988;2023-10-13T01:08:04;12.73;;;8.52;;
76574;SDS011;65439;50.948;6.988;2023-10-13T01:10:29;10.20;;;7.73;;
76574;SDS011;65439;50.948;6.988;2023-10-13T01:12:57;14.52;;;8.45;;
76574;SDS011;65439;50.948;6.988;2023-10-13T01:15:24;14.45;;;10.05;;
76574;SDS011;65439;50.948;6.988;2023-10-13T01:17:54;13.60;;;8.55;;
76574;SDS011;65439;50.948;6.988;2023-10-13T01:20:21;13.88;;;9.52;;
76574;SDS011;65439;50.948;6.988;2023-10-13T01:22:50;13.45;;;8.88;;
76574;SDS011;65439;50.948;6.988;2023-10-13T01:25:22;18.60;;;7.97;;
76574;SDS011;65439;50.948;6.988;2023-10-13T01:27:50;12.35;;;8.30;;
76574;SDS011;65439;50.948;6.988;2023-10-13T01:30:16;13.38;;;8.57;;
76574;SDS011;65439;50.948;6.988;2023-10-13T01:32:41;16.35;;;9.32;;
76574;SDS011;65439;50.948;6.988;2023-10-13T01:35:10;13.93;;;8.38;;
76574;SDS011;65439;50.948;6.988;2023-10-13T01:37:35;13.97;;;8.40;;
76574;SDS011;65439;50.948;6.988;2023-10-13T01:40:00;14.63;;;9.57;;
76574;SDS011;65439;50.948;6.988;2023-10-13T01:42:26;12.37;;;8.50;;
76574;SDS011;65439;50.948;6.988;2023-10-13T01:44:53;14.52;;;9.77;;
76574;SDS011;65439;50.948;6.988;2023-10-13T01:47:30;11.38;;;8.15;;
76574;SDS011;65439;50.948;6.988;2023-10-13T01:49:55;15.37;;;8.50;;
76574;SDS011;65439;50.948;6.988;2023-10-13T01:52:23;10.90;;;8.20;;
76574;SDS011;65439;50.948;6.988;2023-10-13T01:54:49;13.10;;;9.15;;
76574;SDS011;65439;50.948;6.988;2023-10-13T01:57:15;13.80;;;8.88;;
76574;SDS011;65439;50.948;6.988;2023-10-13T01:59:48;10.93;;;7.93;;
76574;SDS011;65439;50.948;6.988;2023-10-13T02:02:14;13.30;;;8.70;;
76574;SDS011;65439;50.948;6.988;2023-10-13T02:04:42;13.15;;;8.40;;
76574;SDS011;65439;50.948;6.988;2023-10-13T02:07:14;14.15;;;9.63;;
76574;SDS011;65439;50.948;6.988;2023-10-13T02:09:40;12.18;;;8.45;;
76574;SDS011;65439;50.948;6.988;2023-10-13T02:12:07;12.75;;;8.63;;
76574;SDS011;65439;50.948;6.988;2023-10-13T02:14:34;16.83;;;9.70;;
76574;SDS011;65439;50.948;6.988;2023-10-13T02:17:01;13.88;;;10.38;;
76574;SDS011;65439;50.948;6.988;2023-10-13T02:19:39;17.90;;;8.35;;
76574;SDS011;65439;50.948;6.988;2023-10-13T02:22:08;12.40;;;9.13;;
76574;SDS011;65439;50.948;6.988;2023-10-13T02:24:35;14.30;;;10.57;;
76574;SDS011;65439;50.948;6.988;2023-10-13T02:27:05;13.13;;;9.20;;
76574;SDS011;65439;50.948;6.988;2023-10-13T02:29:34;13.13;;;9.07;;
76574;SDS011;65439;50.948;6.988;2023-10-13T02:32:04;15.32;;;10.15;;
76574;SDS011;65439;50.948;6.988;2023-10-13T02:34:30;14.80;;;10.20;;
76574;SDS011;65439;50.948;6.988;2023-10-13T02:39:21;16.02;;;9.27;;
76574;SDS011;65439;50.948;6.988;2023-10-13T02:41:51;18.13;;;9.50;;
76574;SDS011;65439;50.948;6.988;2023-10-13T02:44:17;14.75;;;10.18;;
76574;SDS011;65439;50.948;6.988;2023-10-13T02:46:52;15.38;;;9.80;;
76574;SDS011;65439;50.948;6.988;2023-10-13T02:49:17;14.65;;;9.40;;
76574;SDS011;65439;50.948;6.988;2023-10-13T02:51:44;15.93;;;10.38;;
76574;SDS011;65439;50.948;6.988;2023-10-13T02:54:10;20.25;;;10.98;;
76574;SDS011;65439;50.948;6.988;2023-10-13T02:56:36;17.55;;;10.05;;
76574;SDS011;65439;50.948;6.988;2023-10-13T02:59:02;15.23;;;10.45;;
76574;SDS011;65439;50.948;6.988;2023-10-13T03:01:33;15.93;;;10.70;;
76574;SDS011;65439;50.948;6.988;2023-10-13T03:03:59;17.65;;;10.00;;
76574;SDS011;65439;50.948;6.988;2023-10-13T03:06:25;17.85;;;10.45;;
76574;SDS011;65439;50.948;6.988;2023-10-13T03:08:57;16.90;;;10.85;;
76574;SDS011;65439;50.948;6.988;2023-10-13T03:11:25;17.25;;;11.15;;
76574;SDS011;65439;50.948;6.988;2023-10-13T03:13:50;16.47;;;10.00;;
76574;SDS011;65439;50.948;6.988;2023-10-13T03:16:17;18.33;;;10.57;;
76574;SDS011;65439;50.948;6.988;2023-10-13T03:18:44;17.95;;;10.98;;
76574;SDS011;65439;50.948;6.988;2023-10-13T03:21:24;15.98;;;10.95;;
76574;SDS011;65439;50.948;6.988;2023-10-13T03:23:59;16.23;;;11.00;;
76574;SDS011;65439;50.948;6.988;2023-10-13T03:26:29;15.75;;;9.68;;
76574;SDS011;65439;50.948;6.988;2023-10-13T03:28:59;21.40;;;10.55;;
76574;SDS011;65439;50.948;6.988;2023-10-13T03:31:25;13.55;;;10.15;;
76574;SDS011;65439;50.948;6.988;2023-10-13T03:33:53;15.23;;;10.95;;
76574;SDS011;65439;50.948;6.988;2023-10-13T03:36:24;19.05;;;10.35;;
76574;SDS011;65439;50.948;6.988;2023-10-13T03:39:08;16.75;;;9.68;;
76574;SDS011;65439;50.948;6.988;2023-10-13T03:41:35;13.98;;;9.85;;
76574;SDS011;65439;50.948;6.988;2023-10-13T03:44:03;16.95;;;10.00;;
76574;SDS011;65439;50.948;6.988;2023-10-13T03:46:42;14.88;;;10.70;;
76574;SDS011;65439;50.948;6.988;2023-10-13T03:49:07;17.17;;;10.25;;
76574;SDS011;65439;50.948;6.988;2023-10-13T03:51:38;19.80;;;10.52;;
76574;SDS011;65439;50.948;6.988;2023-10-13T03:54:04;18.83;;;10.05;;
76574;SDS011;65439;50.948;6.988;2023-10-13T03:56:32;19.55;;;10.25;;
76574;SDS011;65439;50.948;6.988;2023-10-13T03:59:03;12.23;;;9.88;;
76574;SDS011;65439;50.948;6.988;2023-10-13T04:01:32;18.00;;;9.43;;
76574;SDS011;65439;50.948;6.988;2023-10-13T04:04:00;15.68;;;10.20;;
76574;SDS011;65439;50.948;6.988;2023-10-13T04:06:30;17.08;;;10.90;;
76574;SDS011;65439;50.948;6.988;2023-10-13T04:09:15;14.68;;;9.93;;
76574;SDS011;65439;50.948;6.988;2023-10-13T04:14:31;17.55;;;10.35;;
76574;SDS011;65439;50.948;6.988;2023-10-13T04:17:14;16.05;;;10.30;;
76574;SDS011;65439;50.948;6.988;2023-10-13T04:19:40;16.83;;;9.97;;
76574;SDS011;65439;50.948;6.988;2023-10-13T04:22:24;15.55;;;10.40;;
76574;SDS011;65439;50.948;6.988;2023-10-13T04:25:11;19.98;;;10.93;;
76574;SDS011;65439;50.948;6.988;2023-10-13T04:33:31;14.77;;;11.27;;
76574;SDS011;65439;50.948;6.988;2023-10-13T04:38:50;15.07;;;10.35;;
76574;SDS011;65439;50.948;6.988;2023-10-13T04:41:25;14.48;;;11.32;;
76574;SDS011;65439;50.948;6.988;2023-10-13T04:43:57;15.23;;;9.68;;
76574;SDS011;65439;50.948;6.988;2023-10-13T04:46:29;16.90;;;10.45;;
76574;SDS011;65439;50.948;6.988;2023-10-13T04:49:00;15.02;;;10.73;;
76574;SDS011;65439;50.948;6.988;2023-10-13T04:51:34;17.05;;;11.27;;
76574;SDS011;65439;50.948;6.988;2023-10-13T04:54:15;16.02;;;11.13;;
76574;SDS011;65439;50.948;6.988;2023-10-13T04:56:51;16.00;;;11.30;;
76574;SDS011;65439;50.948;6.988;2023-10-13T04:59:39;16.27;;;10.45;;
76574;SDS011;65439;50.948;6.988;2023-10-13T05:02:24;15.05;;;9.68;;
76574;SDS011;65439;50.948;6.988;2023-10-13T05:05:13;14.07;;;9.98;;
76574;SDS011;65439;50.948;6.988;2023-10-13T05:07:42;16.92;;;12.07;;
76574;SDS011;65439;50.948;6.988;2023-10-13T05:10:26;15.95;;;9.57;;
76574;SDS011;65439;50.948;6.988;2023-10-13T05:13:10;14.93;;;9.93;;
76574;SDS011;65439;50.948;6.988;2023-10-13T05:15:53;16.42;;;10.63;;
76574;SDS011;65439;50.948;6.988;2023-10-13T05:18:37;13.10;;;9.57;;
76574;SDS011;65439;50.948;6.988;2023-10-13T05:21:21;12.52;;;9.82;;
76574;SDS011;65439;50.948;6.988;2023-10-13T05:24:05;12.55;;;9.57;;
76574;SDS011;65439;50.948;6.988;2023-10-13T05:26:50;14.20;;;9.25;;
76574;SDS011;65439;50.948;6.988;2023-10-13T05:29:37;14.25;;;9.70;;
76574;SDS011;65439;50.948;6.988;2023-10-13T05:32:21;13.18;;;9.25;;
76574;SDS011;65439;50.948;6.988;2023-10-13T05:35:05;16.80;;;9.07;;
76574;SDS011;65439;50.948;6.988;2023-10-13T05:37:49;18.30;;;9.60;;
76574;SDS011;65439;50.948;6.988;2023-10-13T05:40:33;18.70;;;9.40;;
76574;SDS011;65439;50.948;6.988;2023-10-13T05:43:17;14.38;;;8.68;;
76574;SDS011;65439;50.948;6.988;2023-10-13T05:46:02;16.67;;;9.20;;
76574;SDS011;65439;50.948;6.988;2023-10-13T05:48:47;12.25;;;9.20;;
76574;SDS011;65439;50.948;6.988;2023-10-13T05:51:28;14.35;;;10.10;;
76574;SDS011;65439;50.948;6.988;2023-10-13T05:54:11;13.70;;;9.32;;
76574;SDS011;65439;50.948;6.988;2023-10-13T05:59:24;13.55;;;8.82;;
76574;SDS011;65439;50.948;6.988;2023-10-13T06:02:07;14.02;;;9.32;;
76574;SDS011;65439;50.948;6.988;2023-10-13T06:04:51;15.77;;;9.63;;
76574;SDS011;65439;50.948;6.988;2023-10-13T06:07:35;13.90;;;9.18;;
76574;SDS011;65439;50.948;6.988;2023-10-13T06:10:19;16.35;;;8.05;;
76574;SDS011;65439;50.948;6.988;2023-10-13T06:13:03;12.13;;;8.77;;
76574;SDS011;65439;50.948;6.988;2023-10-13T06:15:47;11.10;;;8.10;;
76574;SDS011;65439;50.948;6.988;2023-10-13T06:18:31;11.75;;;8.43;;
76574;SDS011;65439;50.948;6.988;2023-10-13T06:21:16;12.55;;;8.25;;
76574;SDS011;65439;50.948;6.988;2023-10-13T06:24:00;11.25;;;7.88;;
76574;SDS011;65439;50.948;6.988;2023-10-13T06:26:44;14.23;;;7.65;;
76574;SDS011;65439;50.948;6.988;2023-10-13T06:29:30;19.38;;;7.93;;
76574;SDS011;65439;50.948;6.988;2023-10-13T06:31:55;13.03;;;8.00;;
76574;SDS011;65439;50.948;6.988;2023-10-13T06:34:22;14.40;;;8.52;;
76574;SDS011;65439;50.948;6.988;2023-10-13T06:37:02;9.13;;;7.75;;
76574;SDS011;65439;50.948;6.988;2023-10-13T06:39:27;13.43;;;8.57;;
76574;SDS011;65439;50.948;6.988;2023-10-13T06:42:11;15.27;;;9.25;;
76574;SDS011;65439;50.948;6.988;2023-10-13T06:44:36;13.15;;;8.20;;
76574;SDS011;65439;50.948;6.988;2023-10-13T06:47:04;11.88;;;7.03;;
76574;SDS011;65439;50.948;6.988;2023-10-13T06:49:30;13.70;;;6.95;;
76574;SDS011;65439;50.948;6.988;2023-10-13T06:51:57;16.55;;;7.55;;
76574;SDS011;65439;50.948;6.988;2023-10-13T06:54:25;16.55;;;7.55;;
76574;SDS011;65439;50.948;6.988;2023-10-13T06:56:50;13.18;;;6.63;;
76574;SDS011;65439;50.948;6.988;2023-10-13T06:59:17;14.35;;;7.20;;
76574;SDS011;65439;50.948;6.988;2023-10-13T07:01:43;23.47;;;7.60;;
76574;SDS011;65439;50.948;6.988;2023-10-13T07:04:09;10.30;;;7.82;;
76574;SDS011;65439;50.948;6.988;2023-10-13T07:06:41;15.70;;;7.90;;
76574;SDS011;65439;50.948;6.988;2023-10-13T07:09:16;13.02;;;7.65;;
76574;SDS011;65439;50.948;6.988;2023-10-13T07:12:14;11.98;;;6.38;;
76574;SDS011;65439;50.948;6.988;2023-10-13T07:14:45;16.75;;;6.82;;
76574;SDS011;65439;50.948;6.988;2023-10-13T07:17:16;18.13;;;8.32;;
76574;SDS011;65439;50.948;6.988;2023-10-13T07:19:48;19.30;;;7.05;;
76574;SDS011;65439;50.948;6.988;2023-10-13T07:22:18;13.13;;;6.88;;
76574;SDS011;65439;50.948;6.988;2023-10-13T07:24:47;12.75;;;6.25;;
76574;SDS011;65439;50.948;6.988;2023-10-13T07:29:47;9.50;;;6.50;;
76574;SDS011;65439;50.948;6.988;2023-10-13T07:32:14;13.30;;;6.15;;
76574;SDS011;65439;50.948;6.988;2023-10-13T07:34:49;13.32;;;6.13;;
76574;SDS011;65439;50.948;6.988;2023-10-13T07:37:14;11.82;;;6.90;;
76574;SDS011;65439;50.948;6.988;2023-10-13T07:39:41;12.18;;;6.47;;
76574;SDS011;65439;50.948;6.988;2023-10-13T07:42:07;10.63;;;6.75;;
76574;SDS011;65439;50.948;6.988;2023-10-13T07:44:40;16.58;;;7.18;;
76574;SDS011;65439;50.948;6.988;2023-10-13T07:47:11;14.05;;;5.93;;
76574;SDS011;65439;50.948;6.988;2023-10-13T07:49:36;13.68;;;5.53;;
76574;SDS011;65439;50.948;6.988;2023-10-13T07:55:00;14.60;;;6.85;;
76574;SDS011;65439;50.948;6.988;2023-10-13T07:57:35;10.93;;;5.13;;
76574;SDS011;65439;50.948;6.988;2023-10-13T08:00:01;14.07;;;5.43;;
76574;SDS011;65439;50.948;6.988;2023-10-13T08:02:56;14.10;;;5.75;;
76574;SDS011;65439;50.948;6.988;2023-10-13T08:05:32;17.55;;;7.00;;
76574;SDS011;65439;50.948;6.988;2023-10-13T08:08:16;11.40;;;6.20;;
76574;SDS011;65439;50.948;6.988;2023-10-13T08:10:41;12.50;;;5.40;;
76574;SDS011;65439;50.948;6.988;2023-10-13T08:13:10;9.73;;;6.32;;
76574;SDS011;65439;50.948;6.988;2023-10-13T08:15:40;21.95;;;6.53;;
76574;SDS011;65439;50.948;6.988;2023-10-13T08:18:05;13.13;;;6.28;;
76574;SDS011;65439;50.948;6.988;2023-10-13T08:20:41;12.85;;;5.38;;
76574;SDS011;65439;50.948;6.988;2023-10-13T08:23:07;10.38;;;5.63;;
76574;SDS011;65439;50.948;6.988;2023-10-13T08:25:40;13.45;;;6.82;;
76574;SDS011;65439;50.948;6.988;2023-10-13T08:28:27;22.52;;;7.47;;
76574;SDS011;65439;50.948;6.988;2023-10-13T08:31:07;13.85;;;5.60;;
76574;SDS011;65439;50.948;6.988;2023-10-13T08:33:47;12.05;;;5.28;;
76574;SDS011;65439;50.948;6.988;2023-10-13T08:36:13;17.67;;;6.15;;
76574;SDS011;65439;50.948;6.988;2023-10-13T08:38:54;12.45;;;5.80;;
76574;SDS011;65439;50.948;6.988;2023-10-13T08:41:20;13.02;;;6.35;;
76574;SDS011;65439;50.948;6.988;2023-10-13T08:43:48;17.08;;;7.00;;
76574;SDS011;65439;50.948;6.988;2023-10-13T08:46:17;11.32;;;5.60;;
76574;SDS011;65439;50.948;6.988;2023-10-13T08:48:56;10.38;;;5.57;;
76574;SDS011;65439;50.948;6.988;2023-10-13T08:51:32;15.23;;;5.50;;
76574;SDS011;65439;50.948;6.988;2023-10-13T08:54:09;12.30;;;6.40;;
76574;SDS011;65439;50.948;6.988;2023-10-13T08:56:44;12.30;;;5.85;;
76574;SDS011;65439;50.948;6.988;2023-10-13T08:59:20;12.57;;;5.57;;
76574;SDS011;65439;50.948;6.988;2023-10-13T09:01:58;13.77;;;5.47;;
76574;SDS011;65439;50.948;6.988;2023-10-13T09:04:42;15.48;;;5.85;;
76574;SDS011;65439;50.948;6.988;2023-10-13T09:07:09;18.80;;;6.75;;
76574;SDS011;65439;50.948;6.988;2023-10-13T09:12:15;12.55;;;5.85;;
76574;SDS011;65439;50.948;6.988;2023-10-13T09:14:42;12.32;;;5.65;;
76574;SDS011;65439;50.948;6.988;2023-10-13T09:17:12;11.63;;;5.65;;
76574;SDS011;65439;50.948;6.988;2023-10-13T09:19:44;10.55;;;5.30;;
76574;SDS011;65439;50.948;6.988;2023-10-13T09:22:22;11.90;;;5.25;;
76574;SDS011;65439;50.948;6.988;2023-10-13T09:24:58;15.43;;;5.90;;
76574;SDS011;65439;50.948;6.988;2023-10-13T09:27:24;9.70;;;5.53;;
76574;SDS011;65439;50.948;6.988;2023-10-13T09:29:55;14.82;;;5.78;;
76574;SDS011;65439;50.948;6.988;2023-10-13T09:32:20;7.97;;;5.43;;
76574;SDS011;65439;50.948;6.988;2023-10-13T09:34:46;13.98;;;5.65;;
76574;SDS011;65439;50.948;6.988;2023-10-13T09:37:13;13.60;;;6.18;;
76574;SDS011;65439;50.948;6.988;2023-10-13T09:42:18;10.10;;;5.47;;
76574;SDS011;65439;50.948;6.988;2023-10-13T09:44:48;9.13;;;5.93;;
76574;SDS011;65439;50.948;6.988;2023-10-13T09:47:21;15.38;;;6.10;;
76574;SDS011;65439;50.948;6.988;2023-10-13T09:49:56;11.75;;;6.32;;
76574;SDS011;65439;50.948;6.988;2023-10-13T09:52:23;11.52;;;6.25;;
76574;SDS011;65439;50.948;6.988;2023-10-13T09:57:29;12.25;;;5.57;;
76574;SDS011;65439;50.948;6.988;2023-10-13T10:00:00;9.75;;;6.55;;
76574;SDS011;65439;50.948;6.988;2023-10-13T10:02:31;7.47;;;5.43;;
76574;SDS011;65439;50.948;6.988;2023-10-13T10:04:57;13.40;;;7.15;;
76574;SDS011;65439;50.948;6.988;2023-10-13T10:07:41;13.70;;;6.20;;
76574;SDS011;65439;50.948;6.988;2023-10-13T10:10:09;12.63;;;6.57;;
76574;SDS011;65439;50.948;6.988;2023-10-13T10:12:54;7.70;;;5.57;;
76574;SDS011;65439;50.948;6.988;2023-10-13T10:17:59;12.27;;;7.55;;
76574;SDS011;65439;50.948;6.988;2023-10-13T10:20:28;14.70;;;7.30;;
76574;SDS011;65439;50.948;6.988;2023-10-13T10:22:58;10.73;;;7.57;;
76574;SDS011;65439;50.948;6.988;2023-10-13T10:25:33;15.32;;;7.50;;
76574;SDS011;65439;50.948;6.988;2023-10-13T10:28:08;11.25;;;6.28;;
76574;SDS011;65439;50.948;6.988;2023-10-13T10:30:37;15.60;;;5.75;;
76574;SDS011;65439;50.948;6.988;2023-10-13T10:33:07;13.75;;;6.93;;
76574;SDS011;65439;50.948;6.988;2023-10-13T10:35:37;14.38;;;6.88;;
76574;SDS011;65439;50.948;6.988;2023-10-13T10:40:58;13.32;;;6.82;;
76574;SDS011;65439;50.948;6.988;2023-10-13T10:43:26;13.88;;;7.65;;
76574;SDS011;65439;50.948;6.988;2023-10-13T10:45:52;13.75;;;5.88;;
76574;SDS011;65439;50.948;6.988;2023-10-13T10:48:17;10.70;;;5.88;;
76574;SDS011;65439;50.948;6.988;2023-10-13T10:50:52;11.60;;;6.50;;
76574;SDS011;65439;50.948;6.988;2023-10-13T10:53:23;11.45;;;6.38;;
76574;SDS011;65439;50.948;6.988;2023-10-13T10:56:03;8.18;;;5.57;;
76574;SDS011;65439;50.948;6.988;2023-10-13T10:58:33;9.15;;;6.35;;
76574;SDS011;65439;50.948;6.988;2023-10-13T11:01:07;11.13;;;6.45;;
76574;SDS011;65439;50.948;6.988;2023-10-13T11:03:37;11.88;;;6.45;;
76574;SDS011;65439;50.948;6.988;2023-10-13T11:06:03;10.70;;;5.95;;
76574;SDS011;65439;50.948;6.988;2023-10-13T11:08:30;8.32;;;6.45;;
76574;SDS011;65439;50.948;6.988;2023-10-13T11:10:58;10.93;;;6.03;;
76574;SDS011;65439;50.948;6.988;2023-10-13T11:13:40;16.40;;;6.40;;
76574;SDS011;65439;50.948;6.988;2023-10-13T11:16:08;16.40;;;6.07;;
76574;SDS011;65439;50.948;6.988;2023-10-13T11:18:33;7.97;;;5.93;;
76574;SDS011;65439;50.948;6.988;2023-10-13T11:21:03;11.27;;;7.38;;
76574;SDS011;65439;50.948;6.988;2023-10-13T11:23:32;11.13;;;6.05;;
76574;SDS011;65439;50.948;6.988;2023-10-13T11:25:57;9.63;;;5.75;;
76574;SDS011;65439;50.948;6.988;2023-10-13T11:28:24;13.10;;;6.50;;
76574;SDS011;65439;50.948;6.988;2023-10-13T11:30:52;11.77;;;6.18;;
76574;SDS011;65439;50.948;6.988;2023-10-13T11:33:19;11.73;;;5.85;;
76574;SDS011;65439;50.948;6.988;2023-10-13T11:38:20;13.45;;;5.80;;
76574;SDS011;65439;50.948;6.988;2023-10-13T11:43:26;8.25;;;6.22;;
76574;SDS011;65439;50.948;6.988;2023-10-13T11:45:51;7.97;;;4.90;;
76574;SDS011;65439;50.948;6.988;2023-10-13T11:48:41;12.75;;;6.10;;
76574;SDS011;65439;50.948;6.988;2023-10-13T11:51:09;19.45;;;5.68;;
76574;SDS011;65439;50.948;6.988;2023-10-13T11:53:42;13.27;;;5.95;;
76574;SDS011;65439;50.948;6.988;2023-10-13T11:56:08;12.80;;;5.50;;
76574;SDS011;65439;50.948;6.988;2023-10-13T11:58:37;14.10;;;5.55;;
76574;SDS011;65439;50.948;6.988;2023-10-13T12:01:03;12.27;;;5.72;;
76574;SDS011;65439;50.948;6.988;2023-10-13T12:03:43;15.50;;;7.18;;
76574;SDS011;65439;50.948;6.988;2023-10-13T12:06:27;14.35;;;5.50;;
76574;SDS011;65439;50.948;6.988;2023-10-13T12:09:02;12.18;;;5.38;;
76574;SDS011;65439;50.948;6.988;2023-10-13T12:11:37;14.35;;;6.40;;
76574;SDS011;65439;50.948;6.988;2023-10-13T12:14:06;10.68;;;5.00;;
76574;SDS011;65439;50.948;6.988;2023-10-13T12:16:52;8.52;;;5.25;;
76574;SDS011;65439;50.948;6.988;2023-10-13T12:19:18;8.57;;;5.47;;
76574;SDS011;65439;50.948;6.988;2023-10-13T12:21:48;14.98;;;5.68;;
76574;SDS011;65439;50.948;6.988;2023-10-13T12:24:13;14.98;;;5.70;;
76574;SDS011;65439;50.948;6.988;2023-10-13T12:26:56;16.38;;;6.05;;
76574;SDS011;65439;50.948;6.988;2023-10-13T12:29:23;14.70;;;5.55;;
76574;SDS011;65439;50.948;6.988;2023-10-13T12:31:48;14.70;;;5.40;;
76574;SDS011;65439;50.948;6.988;2023-10-13T12:34:26;14.20;;;5.68;;
76574;SDS011;65439;50.948;6.988;2023-10-13T12:37:12;14.90;;;5.80;;
76574;SDS011;65439;50.948;6.988;2023-10-13T12:39:57;17.77;;;6.65;;
76574;SDS011;65439;50.948;6.988;2023-10-13T12:42:41;7.18;;;5.13;;
76574;SDS011;65439;50.948;6.988;2023-10-13T12:45:25;13.82;;;5.50;;
76574;SDS011;65439;50.948;6.988;2023-10-13T12:48:08;10.75;;;5.60;;
76574;SDS011;65439;50.948;6.988;2023-10-13T12:51:06;10.38;;;5.47;;
76574;SDS011;65439;50.948;6.988;2023-10-13T12:54:05;17.77;;;6.43;;
76574;SDS011;65439;50.948;6.988;2023-10-13T12:56:38;12.88;;;5.00;;
76574;SDS011;65439;50.948;6.988;2023-10-13T12:59:06;14.65;;;5.68;;
76574;SDS011;65439;50.948;6.988;2023-10-13T13:01:34;10.52;;;5.82;;
76574;SDS011;65439;50.948;6.988;2023-10-13T13:03:59;18.77;;;6.20;;
76574;SDS011;65439;50.948;6.988;2023-10-13T13:06:28;11.90;;;5.00;;
76574;SDS011;65439;50.948;6.988;2023-10-13T13:08:55;11.30;;;5.50;;
76574;SDS011;65439;50.948;6.988;2023-10-13T13:11:20;14.43;;;5.85;;
76574;SDS011;65439;50.948;6.988;2023-10-13T13:13:46;9.23;;;4.75;;
76574;SDS011;65439;50.948;6.988;2023-10-13T13:16:12;12.98;;;4.50;;
76574;SDS011;65439;50.948;6.988;2023-10-13T13:18:37;14.32;;;5.32;;
76574;SDS011;65439;50.948;6.988;2023-10-13T13:21:02;8.93;;;4.60;;
76574;SDS011;65439;50.948;6.988;2023-10-13T13:23:31;10.30;;;6.03;;
76574;SDS011;65439;50.948;6.988;2023-10-13T13:25:56;8.15;;;4.53;;
76574;SDS011;65439;50.948;6.988;2023-10-13T13:28:21;15.02;;;5.07;;
76574;SDS011;65439;50.948;6.988;2023-10-13T13:30:49;15.32;;;5.05;;
76574;SDS011;65439;50.948;6.988;2023-10-13T13:33:15;12.55;;;4.95;;
76574;SDS011;65439;50.948;6.988;2023-10-13T13:35:41;15.73;;;5.63;;
76574;SDS011;65439;50.948;6.988;2023-10-13T13:38:13;14.02;;;4.75;;
76574;SDS011;65439;50.948;6.988;2023-10-13T13:40:47;11.40;;;5.47;;
76574;SDS011;65439;50.948;6.988;2023-10-13T13:43:14;14.73;;;5.00;;
76574;SDS011;65439;50.948;6.988;2023-10-13T13:45:56;15.25;;;5.88;;
76574;SDS011;65439;50.948;6.988;2023-10-13T13:48:25;14.10;;;5.25;;
76574;SDS011;65439;50.948;6.988;2023-10-13T13:50:52;14.85;;;5.05;;
76574;SDS011;65439;50.948;6.988;2023-10-13T13:53:20;14.65;;;4.90;;
76574;SDS011;65439;50.948;6.988;2023-10-13T13:55:52;10.20;;;4.85;;
76574;SDS011;65439;50.948;6.988;2023-10-13T13:58:17;12.52;;;5.38;;
76574;SDS011;65439;50.948;6.988;2023-10-13T14:00:42;14.17;;;5.27;;
76574;SDS011;65439;50.948;6.988;2023-10-13T14:03:13;10.13;;;4.85;;
76574;SDS011;65439;50.948;6.988;2023-10-13T14:05:55;11.73;;;6.18;;
76574;SDS011;65439;50.948;6.988;2023-10-13T14:08:23;13.57;;;4.65;;
76574;SDS011;65439;50.948;6.988;2023-10-13T14:10:50;10.35;;;5.45;;
76574;SDS011;65439;50.948;6.988;2023-10-13T14:13:34;12.65;;;5.10;;
76574;SDS011;65439;50.948;6.988;2023-10-13T14:16:16;19.60;;;6.32;;
76574;SDS011;65439;50.948;6.988;2023-10-13T14:18:44;12.85;;;4.85;;
76574;SDS011;65439;50.948;6.988;2023-10-13T14:21:10;15.88;;;5.15;;
76574;SDS011;65439;50.948;6.988;2023-10-13T14:23:35;13.53;;;6.83;;
76574;SDS011;65439;50.948;6.988;2023-10-13T14:26:01;12.85;;;4.65;;
76574;SDS011;65439;50.948;6.988;2023-10-13T14:28:26;9.13;;;4.27;;
76574;SDS011;65439;50.948;6.988;2023-10-13T14:30:59;16.10;;;5.22;;
76574;SDS011;65439;50.948;6.988;2023-10-13T14:33:24;15.07;;;5.00;;
76574;SDS011;65439;50.948;6.988;2023-10-13T14:35:50;16.63;;;5.10;;
76574;SDS011;65439;50.948;6.988;2023-10-13T14:38:16;9.20;;;4.20;;
76574;SDS011;65439;50.948;6.988;2023-10-13T14:40:41;16.23;;;4.87;;
76574;SDS011;65439;50.948;6.988;2023-10-13T14:43:06;11.55;;;5.20;;
76574;SDS011;65439;50.948;6.988;2023-10-13T14:45:34;11.23;;;5.20;;
76574;SDS011;65439;50.948;6.988;2023-10-13T14:48:00;11.13;;;5.18;;
76574;SDS011;65439;50.948;6.988;2023-10-13T14:50:26;14.77;;;5.80;;
76574;SDS011;65439;50.948;6.988;2023-10-13T14:52:53;10.02;;;6.07;;
76574;SDS011;65439;50.948;6.988;2023-10-13T14:55:18;11.20;;;4.40;;
76574;SDS011;65439;50.948;6.988;2023-10-13T14:57:58;13.00;;;5.35;;
76574;SDS011;65439;50.948;6.988;2023-10-13T15:00:23;11.90;;;4.50;;
76574;SDS011;65439;50.948;6.988;2023-10-13T15:02:52;10.50;;;5.47;;
76574;SDS011;65439;50.948;6.988;2023-10-13T15:05:17;10.45;;;4.75;;
76574;SDS011;65439;50.948;6.988;2023-10-13T15:07:43;13.00;;;5.33;;
76574;SDS011;65439;50.948;6.988;2023-10-13T15:10:10;11.32;;;5.03;;
76574;SDS011;65439;50.948;6.988;2023-10-13T15:12:39;8.45;;;5.40;;
76574;SDS011;65439;50.948;6.988;2023-10-13T15:15:06;10.30;;;4.53;;
76574;SDS011;65439;50.948;6.988;2023-10-13T15:17:38;11.43;;;5.05;;
76574;SDS011;65439;50.948;6.988;2023-10-13T15:20:04;10.75;;;4.50;;
76574;SDS011;65439;50.948;6.988;2023-10-13T15:22:33;8.50;;;5.38;;
76574;SDS011;65439;50.948;6.988;2023-10-13T15:25:00;14.82;;;4.95;;
76574;SDS011;65439;50.948;6.988;2023-10-13T15:27:34;16.08;;;5.30;;
76574;SDS011;65439;50.948;6.988;2023-10-13T15:30:06;9.00;;;4.53;;
76574;SDS011;65439;50.948;6.988;2023-10-13T15:32:44;7.20;;;4.65;;
76574;SDS011;65439;50.948;6.988;2023-10-13T15:35:10;8.17;;;4.53;;
76574;SDS011;65439;50.948;6.988;2023-10-13T15:37:37;9.38;;;5.20;;
76574;SDS011;65439;50.948;6.988;2023-10-13T15:40:02;10.83;;;4.73;;
76574;SDS011;65439;50.948;6.988;2023-10-13T15:42:29;11.73;;;4.90;;
76574;SDS011;65439;50.948;6.988;2023-10-13T15:44:54;12.27;;;5.17;;